Time;durP1;ratioP1;P1;durP2;ratioP2;P2;SDS_P1;SDS_P2;PMS_P1;PMS_P2;Temp;Humidity;BMP_temperature;BMP_pressure;BME280_temperature;BME280_humidity;BME280_pressure;Samples;Min_cycle;Max_cycle;Signal;HPM_P1;HPM_P2
2022/01/26 00:06:06;;;;;;;77.18;20.25;;;3.30;99.90;;;;;;5076991;28;20232;-73
2022/01/26 00:08:33;;;;;;;74.18;21.02;;;3.40;99.90;;;;;;5077032;28;20070;-74
2022/01/26 00:10:58;;;;;;;63.47;20.27;;;3.40;99.90;;;;;;5075528;28;20024;-75
2022/01/26 00:13:24;;;;;;;64.43;20.50;;;3.40;99.90;;;;;;5075249;28;20474;-74
2022/01/26 00:15:50;;;;;;;69.60;21.25;;;3.30;99.90;;;;;;5076698;28;20150;-75
2022/01/26 00:18:18;;;;;;;68.80;20.00;;;3.30;99.90;;;;;;5076849;28;20070;-74
2022/01/26 00:20:52;;;;;;;66.30;19.52;;;3.30;99.90;;;;;;5077307;28;20390;-75
2022/01/26 00:26:07;;;;;;;62.28;20.52;;;3.30;99.90;;;;;;5077274;28;20029;-75
2022/01/26 00:38:54;;;;;;;61.50;18.52;;;3.20;99.90;;;;;;5077355;28;20428;-75
2022/01/26 00:41:36;;;;;;;60.00;18.65;;;3.30;99.90;;;;;;5075802;28;20021;-75
2022/01/26 00:44:04;;;;;;;56.00;16.17;;;3.30;99.90;;;;;;5075327;28;20017;-74
2022/01/26 00:46:30;;;;;;;60.85;17.95;;;3.30;99.90;;;;;;5076261;28;20482;-75
2022/01/26 00:48:55;;;;;;;57.92;17.27;;;3.30;99.90;;;;;;5077213;28;20020;-75
2022/01/26 00:51:22;;;;;;;57.63;16.67;;;3.30;99.90;;;;;;5076204;28;20421;-75
2022/01/26 00:54:22;;;;;;;51.63;15.95;;;3.20;99.90;;;;;;5076027;28;20431;-75
2022/01/26 00:56:41;;;;;;;65.90;18.50;;;3.20;99.90;;;;;;5076280;28;20031;-75
2022/01/26 00:59:07;;;;;;;61.33;17.23;;;3.30;99.90;;;;;;5077674;28;20024;-75
2022/01/26 01:01:33;;;;;;;52.40;15.73;;;3.20;99.90;;;;;;5076360;28;20034;-75
2022/01/26 01:03:58;;;;;;;52.50;15.63;;;3.30;99.90;;;;;;5074726;28;20040;-74
2022/01/26 01:06:30;;;;;;;54.38;16.60;;;3.20;99.90;;;;;;5075487;28;20020;-74
2022/01/26 01:08:57;;;;;;;49.20;15.15;;;3.20;99.90;;;;;;5076696;28;20059;-75
2022/01/26 01:11:24;;;;;;;61.78;16.95;;;3.30;99.90;;;;;;5075917;28;20032;-74
2022/01/26 01:13:50;;;;;;;55.30;15.90;;;3.30;99.90;;;;;;5075084;28;20039;-74
2022/01/26 01:16:20;;;;;;;57.45;16.48;;;3.30;99.90;;;;;;5075929;28;20029;-74
2022/01/26 01:24:57;;;;;;;52.78;15.85;;;3.30;99.90;;;;;;5076605;28;20040;-75
2022/01/26 01:29:39;;;;;;;53.00;15.93;;;3.30;99.90;;;;;;5075604;28;20093;-74
2022/01/26 01:32:12;;;;;;;58.58;18.35;;;3.30;99.90;;;;;;5074925;28;20056;-74
2022/01/26 01:34:39;;;;;;;54.83;16.45;;;3.30;99.90;;;;;;5073693;28;20505;-74
2022/01/26 01:37:08;;;;;;;53.63;14.98;;;3.30;99.90;;;;;;5074866;28;20466;-74
2022/01/26 01:39:35;;;;;;;;;;;3.30;99.90;;;;;;5075075;28;20024;-74
2022/01/26 01:42:06;;;;;;;55.63;16.80;;;3.30;99.90;;;;;;5074834;28;19927;-75
2022/01/26 01:44:32;;;;;;;60.83;19.33;;;3.40;99.90;;;;;;5073359;28;20482;-74
2022/01/26 01:46:58;;;;;;;54.03;17.17;;;3.40;99.90;;;;;;5074894;28;20108;-74
2022/01/26 01:49:24;;;;;;;60.67;17.52;;;3.30;99.90;;;;;;5074957;28;20032;-74
2022/01/26 01:51:58;;;;;;;55.17;16.95;;;3.40;99.90;;;;;;5074885;28;20032;-74
2022/01/26 01:54:24;;;;;;;59.13;18.50;;;3.30;99.90;;;;;;5074428;28;20091;-74
2022/01/26 01:56:54;;;;;;;62.10;19.35;;;3.40;99.90;;;;;;5075217;28;20044;-74
2022/01/26 01:59:22;;;;;;;62.67;17.70;;;3.40;99.90;;;;;;5074555;28;20496;-74
2022/01/26 02:01:48;;;;;;;63.10;18.55;;;3.40;99.90;;;;;;5074782;28;20099;-74
2022/01/26 02:04:14;;;;;;;59.58;17.60;;;3.40;99.90;;;;;;5072734;28;20453;-74
2022/01/26 02:06:41;;;;;;;56.70;17.38;;;3.40;99.90;;;;;;5073134;28;20112;-74
2022/01/26 02:09:06;;;;;;;64.10;19.27;;;3.50;99.90;;;;;;5074697;28;20037;-74
2022/01/26 02:11:32;;;;;;;67.93;20.33;;;3.40;99.90;;;;;;5074646;28;20070;-74
2022/01/26 02:14:13;;;;;;;63.05;18.73;;;3.40;99.90;;;;;;5072932;28;20035;-74
2022/01/26 02:49:47;;;;;;;72.82;22.05;;;3.60;99.90;;;;;;5074492;28;20051;-74
2022/01/26 02:57:30;;;;;;;64.80;21.38;;;3.60;99.90;;;;;;5073974;28;20029;-74
2022/01/26 03:00:14;;;;;;;64.03;20.50;;;3.60;99.90;;;;;;5073898;28;20128;-74
2022/01/26 03:05:45;;;;;;;67.55;20.83;;;3.60;99.90;;;;;;5061626;28;20035;-74
2022/01/26 03:08:11;;;;;;;70.53;22.15;;;3.70;99.90;;;;;;5074547;28;20491;-74
2022/01/26 03:10:49;;;;;;;72.55;21.33;;;3.70;99.90;;;;;;5073880;28;20027;-74
2022/01/26 03:13:20;;;;;;;81.20;23.60;;;3.60;99.90;;;;;;5073646;28;20052;-74
2022/01/26 03:15:51;;;;;;;75.78;21.52;;;3.70;99.90;;;;;;5072651;28;20029;-74
2022/01/26 03:21:04;;;;;;;67.13;20.98;;;3.70;99.90;;;;;;5074143;28;20100;-74
2022/01/26 03:34:16;;;;;;;70.03;21.88;;;3.70;99.90;;;;;;5074157;28;20091;-74
2022/01/26 03:36:58;;;;;;;74.15;23.63;;;3.70;99.90;;;;;;5073967;28;20075;-74
2022/01/26 03:39:25;;;;;;;77.18;23.08;;;3.60;99.90;;;;;;5077223;28;20024;-75
2022/01/26 03:42:03;;;;;;;69.30;20.83;;;3.60;99.90;;;;;;5077466;28;20474;-74
2022/01/26 03:44:29;;;;;;;55.58;16.70;;;3.60;99.90;;;;;;5077056;28;20036;-74
2022/01/26 03:46:55;;;;;;;66.45;19.58;;;3.60;99.90;;;;;;5078834;28;20390;-74
2022/01/26 03:49:20;;;;;;;77.72;21.77;;;3.60;99.90;;;;;;5078628;28;20047;-75
2022/01/26 03:51:46;;;;;;;72.10;22.92;;;3.60;99.90;;;;;;5078067;28;20032;-74
2022/01/26 03:54:14;;;;;;;76.00;22.17;;;3.60;99.90;;;;;;5076579;28;20017;-74
2022/01/26 03:56:40;;;;;;;77.10;21.67;;;3.60;99.90;;;;;;5077687;28;20453;-74
2022/01/26 03:59:06;;;;;;;69.88;21.15;;;3.60;99.90;;;;;;5076940;28;20047;-74
2022/01/26 04:01:32;;;;;;;75.60;23.95;;;3.60;99.90;;;;;;5075998;28;20389;-74
2022/01/26 04:03:58;;;;;;;74.95;24.65;;;3.60;99.90;;;;;;5075948;28;20077;-74
2022/01/26 04:06:24;;;;;;;88.30;22.98;;;3.60;99.90;;;;;;5077849;28;20107;-74
2022/01/26 04:08:50;;;;;;;77.55;22.15;;;3.60;99.90;;;;;;5077584;28;20029;-74
2022/01/26 04:11:36;;;;;;;67.03;22.33;;;3.50;99.90;;;;;;5077222;28;20033;-74
2022/01/26 04:14:05;;;;;;;77.53;22.95;;;3.50;99.90;;;;;;5077209;28;20029;-74
2022/01/26 04:16:32;;;;;;;72.90;23.05;;;3.50;99.90;;;;;;5077124;28;20474;-74
2022/01/26 04:18:58;;;;;;;82.22;23.23;;;3.60;99.90;;;;;;5075932;28;20013;-74
2022/01/26 04:26:19;;;;;;;79.78;24.90;;;3.50;99.90;;;;;;5077718;28;20032;-74
2022/01/26 04:28:52;;;;;;;77.18;22.65;;;3.50;99.90;;;;;;5076454;28;20032;-74
2022/01/26 04:31:19;;;;;;;73.45;21.88;;;3.50;99.90;;;;;;5076630;28;20028;-74
2022/01/26 04:33:45;;;;;;;72.88;22.27;;;3.50;99.90;;;;;;5076790;28;20024;-75
2022/01/26 04:36:15;;;;;;;82.22;24.35;;;3.50;99.90;;;;;;5077808;28;20040;-75
2022/01/26 04:38:47;;;;;;;80.05;23.38;;;3.50;99.90;;;;;;5077245;28;20059;-75
2022/01/26 04:43:46;;;;;;;79.70;23.60;;;3.50;99.90;;;;;;5077507;28;20028;-75
2022/01/26 04:46:12;;;;;;;80.25;23.10;;;3.60;99.90;;;;;;5076353;28;20024;-74
2022/01/26 04:48:38;;;;;;;80.82;25.02;;;3.20;99.90;;;;;;5075904;28;20035;-74
2022/01/26 04:51:03;;;;;;;75.50;25.05;;;3.50;99.90;;;;;;5075456;28;20021;-75
2022/01/26 04:53:29;;;;;;;81.45;23.88;;;3.50;99.90;;;;;;5075225;28;20044;-74
2022/01/26 04:55:54;;;;;;;84.57;25.55;;;3.50;99.90;;;;;;5076895;28;20084;-74
2022/01/26 04:58:20;;;;;;;83.47;23.55;;;3.50;99.90;;;;;;5076276;28;20060;-74
2022/01/26 05:00:45;;;;;;;88.43;23.98;;;3.60;99.90;;;;;;5075167;28;20090;-74
2022/01/26 05:03:11;;;;;;;78.22;24.83;;;3.50;99.90;;;;;;5076017;28;20023;-74
2022/01/26 05:05:37;;;;;;;80.53;24.65;;;3.50;99.90;;;;;;5075408;28;20024;-74
2022/01/26 05:08:03;;;;;;;85.60;25.83;;;3.50;99.90;;;;;;5074465;28;20016;-74
2022/01/26 05:10:28;;;;;;;81.38;24.52;;;3.60;99.90;;;;;;5075743;28;20028;-73
2022/01/26 05:12:54;;;;;;;93.78;26.63;;;3.50;99.90;;;;;;5075666;28;20081;-74
2022/01/26 05:15:22;;;;;;;90.45;25.10;;;3.50;99.90;;;;;;5074304;28;20025;-74
2022/01/26 05:17:48;;;;;;;83.78;24.27;;;3.50;99.90;;;;;;5075500;28;20020;-74
2022/01/26 05:20:14;;;;;;;83.22;23.25;;;3.50;99.90;;;;;;5074717;28;20021;-74
2022/01/26 05:22:41;;;;;;;86.13;23.35;;;3.50;99.90;;;;;;5075351;28;20355;-74
2022/01/26 05:25:07;;;;;;;85.40;22.95;;;3.50;99.90;;;;;;5075664;28;20453;-74
2022/01/26 05:27:34;;;;;;;86.35;24.65;;;3.50;99.90;;;;;;5076379;28;20056;-75
2022/01/26 05:29:59;;;;;;;83.40;24.75;;;3.60;99.90;;;;;;5076227;28;20394;-74
2022/01/26 05:32:25;;;;;;;93.10;25.00;;;3.60;99.90;;;;;;5075508;28;20021;-73
2022/01/26 05:34:51;;;;;;;91.55;26.08;;;3.50;99.90;;;;;;5075106;28;20078;-74
2022/01/26 05:37:16;;;;;;;95.40;27.30;;;3.60;99.90;;;;;;5075233;28;20409;-74
2022/01/26 05:39:42;;;;;;;87.40;23.92;;;3.50;99.90;;;;;;5075109;28;20024;-74
2022/01/26 05:42:08;;;;;;;88.57;25.45;;;3.50;99.90;;;;;;5076081;28;20024;-74
2022/01/26 05:44:34;;;;;;;85.28;24.33;;;3.50;99.90;;;;;;5075694;28;20025;-74
2022/01/26 05:47:00;;;;;;;96.13;27.55;;;3.40;99.90;;;;;;5074266;28;20025;-74
2022/01/26 05:49:26;;;;;;;99.32;27.35;;;3.40;99.90;;;;;;5074841;28;20095;-74
2022/01/26 05:51:52;;;;;;;91.70;25.48;;;3.30;99.90;;;;;;5075348;28;20028;-74
2022/01/26 05:54:18;;;;;;;98.43;25.15;;;3.30;99.90;;;;;;5075409;28;20035;-75
2022/01/26 05:56:46;;;;;;;82.20;21.40;;;3.30;99.90;;;;;;5075270;28;20016;-75
2022/01/26 05:59:15;;;;;;;91.55;24.48;;;3.30;99.90;;;;;;5075421;28;20030;-74
2022/01/26 06:01:40;;;;;;;85.97;24.05;;;3.30;99.90;;;;;;5073745;28;20025;-74
2022/01/26 06:04:06;;;;;;;94.18;25.38;;;3.30;99.90;;;;;;5075298;28;20377;-74
2022/01/26 06:06:32;;;;;;;86.55;23.35;;;3.40;99.90;;;;;;5074188;28;20490;-76
2022/01/26 06:08:57;;;;;;;87.90;24.90;;;3.40;99.90;;;;;;5075271;28;20048;-71
2022/01/26 06:11:23;;;;;;;90.32;26.67;;;3.40;99.90;;;;;;5074864;28;20016;-72
2022/01/26 06:13:48;;;;;;;99.07;25.48;;;3.40;99.90;;;;;;5075466;28;20033;-72
2022/01/26 06:16:16;;;;;;;88.15;24.80;;;3.40;99.90;;;;;;5076140;28;20021;-72
2022/01/26 06:18:43;;;;;;;93.72;24.10;;;3.40;99.90;;;;;;5075494;28;20020;-72
2022/01/26 06:21:10;;;;;;;105.20;27.08;;;3.40;99.90;;;;;;5076055;28;20024;-72
2022/01/26 06:23:35;;;;;;;85.18;23.85;;;3.40;99.90;;;;;;5074810;28;20017;-71
2022/01/26 06:26:01;;;;;;;94.18;25.17;;;3.40;99.90;;;;;;5075600;28;20021;-71
2022/01/26 06:28:27;;;;;;;95.82;25.77;;;3.40;99.90;;;;;;5075946;28;20039;-71
2022/01/26 06:30:59;;;;;;;90.53;24.38;;;3.40;99.90;;;;;;5076157;28;20020;-72
2022/01/26 06:33:25;;;;;;;92.20;27.58;;;3.40;99.90;;;;;;5076221;28;20523;-71
2022/01/26 06:35:51;;;;;;;96.82;26.35;;;3.40;99.90;;;;;;5076552;28;20017;-73
2022/01/26 06:38:17;;;;;;;94.38;28.15;;;3.40;99.90;;;;;;5074697;28;20173;-72
2022/01/26 06:40:42;;;;;;;90.70;25.90;;;3.40;99.90;;;;;;5075067;28;20090;-72
2022/01/26 06:43:14;;;;;;;88.05;25.13;;;3.40;99.90;;;;;;5073173;28;20040;-72
2022/01/26 06:45:50;;;;;;;92.10;26.48;;;3.30;99.90;;;;;;5074566;28;20025;-72
2022/01/26 06:51:01;;;;;;;93.07;23.55;;;3.40;99.90;;;;;;5075363;28;20039;-72
2022/01/26 06:53:27;;;;;;;90.90;25.85;;;3.30;99.90;;;;;;5074285;28;20021;-71
2022/01/26 06:55:53;;;;;;;90.88;25.45;;;3.40;99.90;;;;;;5074704;28;20489;-73
2022/01/26 06:58:18;;;;;;;93.10;24.92;;;3.40;99.90;;;;;;5074216;28;20021;-72
2022/01/26 07:00:44;;;;;;;86.80;24.85;;;3.40;99.90;;;;;;5074024;28;20025;-71
2022/01/26 07:03:10;;;;;;;87.32;24.67;;;3.40;99.90;;;;;;5074741;28;20496;-71
2022/01/26 07:05:35;;;;;;;91.85;25.02;;;3.40;99.90;;;;;;5073889;28;20077;-75
2022/01/26 07:08:02;;;;;;;89.90;25.15;;;3.50;99.90;;;;;;5072890;28;20035;-74
2022/01/26 07:10:28;;;;;;;83.20;22.75;;;3.50;99.90;;;;;;5073309;28;20024;-74
2022/01/26 07:12:53;;;;;;;91.55;24.13;;;3.50;99.90;;;;;;5075723;28;20032;-74
2022/01/26 07:23:39;;;;;;;73.32;22.02;;;3.60;99.90;;;;;;5077895;28;20059;-73
2022/01/26 07:26:05;;;;;;;89.15;25.02;;;3.60;99.90;;;;;;5077170;28;20024;-74
2022/01/26 07:28:35;;;;;;;82.13;23.80;;;3.60;99.90;;;;;;5076349;28;20019;-74
2022/01/26 07:31:01;;;;;;;88.70;23.20;;;3.70;99.90;;;;;;5077278;28;20021;-74
2022/01/26 07:33:27;;;;;;;70.57;19.90;;;3.80;99.90;;;;;;5076945;28;20472;-74
2022/01/26 07:35:53;;;;;;;75.22;22.00;;;3.80;99.90;;;;;;5077293;28;20021;-76
2022/01/26 07:38:19;;;;;;;73.53;20.67;;;3.80;99.90;;;;;;5078123;28;20016;-74
2022/01/26 07:40:44;;;;;;;64.47;20.52;;;3.80;99.90;;;;;;5077035;28;20375;-74
2022/01/26 07:43:10;;;;;;;62.15;20.80;;;3.80;99.90;;;;;;5077015;28;20023;-74
2022/01/26 07:45:35;;;;;;;59.25;18.52;;;3.90;99.90;;;;;;5077659;28;20024;-75
2022/01/26 07:48:01;;;;;;;65.40;19.88;;;3.80;99.90;;;;;;5078014;28;20471;-74
2022/01/26 07:50:27;;;;;;;63.95;20.20;;;3.80;99.90;;;;;;5078742;28;20028;-75
2022/01/26 07:52:53;;;;;;;61.95;19.95;;;3.80;99.90;;;;;;5077982;28;20444;-75
2022/01/26 07:55:21;;;;;;;64.00;19.48;;;3.80;99.90;;;;;;5078109;28;20021;-74
2022/01/26 07:57:49;;;;;;;54.65;17.60;;;3.70;99.90;;;;;;5077461;28;20017;-74
2022/01/26 08:00:16;;;;;;;65.87;20.93;;;3.70;99.90;;;;;;5076610;28;20025;-75
2022/01/26 08:02:45;;;;;;;68.30;19.13;;;3.70;99.90;;;;;;5076160;28;20398;-74
2022/01/26 08:05:11;;;;;;;65.50;19.27;;;3.70;99.90;;;;;;5075794;28;20111;-74
2022/01/26 08:07:37;;;;;;;68.65;20.42;;;3.70;99.90;;;;;;5077735;28;20446;-74
2022/01/26 08:10:05;;;;;;;63.72;20.45;;;3.70;99.90;;;;;;5077551;28;20049;-74
2022/01/26 08:12:30;;;;;;;65.13;20.48;;;3.70;99.90;;;;;;5075821;28;20074;-74
2022/01/26 08:14:59;;;;;;;59.70;18.30;;;3.60;99.90;;;;;;5080348;28;20408;-74
2022/01/26 08:17:25;;;;;;;62.42;18.45;;;1.60;99.90;;;;;;5076089;28;20027;-75
2022/01/26 08:19:55;;;;;;;57.03;19.13;;;3.70;99.90;;;;;;5077776;28;20095;-75
2022/01/26 08:22:23;;;;;;;65.68;20.95;;;3.70;99.90;;;;;;5075861;28;20090;-73
2022/01/26 08:24:49;;;;;;;55.33;17.13;;;3.80;99.90;;;;;;5076038;28;20052;-75
2022/01/26 08:27:17;;;;;;;64.20;21.08;;;3.80;99.90;;;;;;5075894;28;20046;-74
2022/01/26 08:29:47;;;;;;;60.38;19.67;;;3.80;99.90;;;;;;5077417;28;20031;-75
2022/01/26 08:32:13;;;;;;;64.53;18.98;;;3.80;99.90;;;;;;5077970;28;20494;-75
2022/01/26 08:34:39;;;;;;;55.50;17.38;;;3.90;99.90;;;;;;5076454;28;20037;-75
2022/01/26 08:37:05;;;;;;;51.88;17.52;;;3.80;99.90;;;;;;5078144;28;20525;-75
2022/01/26 08:39:32;;;;;;;58.97;17.52;;;3.80;99.90;;;;;;5076947;28;20028;-74
2022/01/26 08:41:59;;;;;;;55.20;18.45;;;3.80;99.90;;;;;;5077423;28;20028;-74
2022/01/26 08:44:25;;;;;;;59.90;18.10;;;3.80;99.90;;;;;;5077604;28;20382;-75
2022/01/26 08:46:52;;;;;;;55.45;17.40;;;3.80;99.90;;;;;;5077023;28;20031;-75
2022/01/26 08:49:18;;;;;;;56.70;18.25;;;3.80;99.90;;;;;;5077037;28;20052;-75
2022/01/26 08:51:43;;;;;;;50.10;16.33;;;3.80;99.90;;;;;;5077539;28;20020;-75
2022/01/26 08:54:10;;;;;;;57.83;17.67;;;3.90;99.90;;;;;;5077066;28;20044;-75
2022/01/26 08:56:37;;;;;;;48.78;15.20;;;3.90;99.90;;;;;;5075834;28;20107;-75
2022/01/26 08:59:03;;;;;;;53.17;16.67;;;4.00;99.90;;;;;;5077148;28;20359;-75
2022/01/26 09:01:29;;;;;;;51.78;15.80;;;3.90;99.90;;;;;;5077180;28;20103;-75
2022/01/26 09:03:54;;;;;;;51.45;15.55;;;3.80;99.90;;;;;;5076673;28;20488;-75
2022/01/26 09:06:20;;;;;;;53.40;17.15;;;3.90;99.90;;;;;;5076439;28;20028;-75
2022/01/26 09:08:51;;;;;;;49.83;15.45;;;3.90;99.90;;;;;;5076214;28;20620;-75
2022/01/26 09:11:21;;;;;;;46.83;13.88;;;4.00;99.90;;;;;;5075358;28;20024;-75
2022/01/26 09:13:51;;;;;;;51.40;14.48;;;4.10;99.90;;;;;;5075737;28;20028;-75
2022/01/26 09:16:19;;;;;;;49.83;16.10;;;4.10;99.90;;;;;;5074733;28;20047;-75
2022/01/26 09:18:51;;;;;;;46.63;14.18;;;4.10;99.90;;;;;;5075783;28;20024;-75
2022/01/26 09:21:18;;;;;;;47.47;14.52;;;4.00;99.90;;;;;;5075583;28;20024;-75
2022/01/26 09:23:44;;;;;;;53.50;13.77;;;4.10;99.90;;;;;;5074217;28;20025;-75
2022/01/26 09:26:10;;;;;;;46.85;15.05;;;4.10;99.90;;;;;;5074181;28;20028;-75
2022/01/26 09:28:36;;;;;;;51.58;14.25;;;4.20;99.90;;;;;;5075998;28;20494;-75
2022/01/26 09:31:02;;;;;;;46.15;14.50;;;4.20;99.90;;;;;;5076716;28;20070;-75
2022/01/26 09:33:28;;;;;;;58.75;15.10;;;4.20;99.90;;;;;;5075316;28;20021;-75
2022/01/26 09:35:53;;;;;;;42.08;13.48;;;4.20;99.90;;;;;;5075017;28;20134;-75
2022/01/26 09:38:19;;;;;;;46.58;15.23;;;4.20;99.90;;;;;;5077521;28;20052;-75
2022/01/26 09:40:47;;;;;;;44.88;13.68;;;4.30;99.90;;;;;;5077159;28;20413;-75
2022/01/26 09:43:14;;;;;;;48.53;14.60;;;4.30;99.90;;;;;;5075701;28;20047;-75
2022/01/26 09:45:40;;;;;;;46.30;13.77;;;4.30;99.90;;;;;;5076115;28;20048;-74
2022/01/26 09:48:06;;;;;;;40.08;12.68;;;4.40;99.90;;;;;;5078316;28;20382;-75
2022/01/26 09:50:33;;;;;;;44.53;11.48;;;4.40;99.90;;;;;;5077152;28;20024;-75
2022/01/26 09:52:59;;;;;;;53.33;13.65;;;4.40;99.90;;;;;;5076371;28;20021;-75
2022/01/26 09:55:25;;;;;;;43.13;12.98;;;4.40;99.90;;;;;;5077068;28;20382;-75
2022/01/26 09:57:57;;;;;;;40.47;13.45;;;4.30;99.90;;;;;;5076853;28;20509;-75
2022/01/26 10:00:24;;;;;;;45.25;12.80;;;4.30;99.90;;;;;;5076240;28;20050;-75
2022/01/26 10:03:02;;;;;;;44.35;11.60;;;4.30;99.90;;;;;;5075221;28;20017;-75
2022/01/26 10:05:40;;;;;;;45.50;12.20;;;4.40;99.90;;;;;;5077485;28;20048;-75
2022/01/26 10:16:15;;;;;;;39.75;11.60;;;4.50;99.90;;;;;;5076326;28;20040;-74
2022/01/26 10:18:41;;;;;;;48.10;12.70;;;4.60;99.90;;;;;;5076686;28;20416;-75
2022/01/26 10:21:09;;;;;;;41.95;11.45;;;4.60;99.90;;;;;;5076874;28;20016;-75
2022/01/26 10:23:37;;;;;;;38.53;11.40;;;4.60;99.90;;;;;;5076452;28;20025;-75
2022/01/26 10:26:12;;;;;;;28.60;8.85;;;4.60;99.90;;;;;;5075880;28;20025;-75
2022/01/26 10:28:45;;;;;;;47.72;12.98;;;4.70;99.90;;;;;;5075292;28;20436;-75
2022/01/26 10:31:17;;;;;;;43.72;12.60;;;4.60;99.90;;;;;;5073494;28;20013;-75
2022/01/26 10:34:14;;;;;;;46.25;13.40;;;4.60;99.90;;;;;;5073027;28;20033;-75
2022/01/26 10:36:51;;;;;;;43.58;12.48;;;4.60;99.90;;;;;;5073638;28;20036;-75
2022/01/26 10:39:26;;;;;;;45.53;12.18;;;4.60;99.90;;;;;;5073003;28;20494;-75
2022/01/26 10:41:55;;;;;;;39.00;12.20;;;4.70;99.90;;;;;;5074771;28;20021;-76
2022/01/26 10:44:33;;;;;;;;;;;4.80;99.90;;;;;;5073623;28;20021;-75
2022/01/26 10:47:01;;;;;;;43.90;12.77;;;4.90;99.90;;;;;;5076793;28;19927;-75
2022/01/26 10:50:07;;;;;;;39.17;12.02;;;4.90;99.90;;;;;;5076787;28;20031;-75
2022/01/26 10:52:35;;;;;;;38.55;12.52;;;4.90;99.90;;;;;;5078029;28;20093;-75
2022/01/26 10:55:01;;;;;;;38.65;11.85;;;5.00;99.90;;;;;;5078251;28;20028;-75
2022/01/26 10:57:27;;;;;;;44.30;13.02;;;5.00;99.90;;;;;;5077910;28;20111;-75
2022/01/26 10:59:52;;;;;;;41.65;13.20;;;5.10;99.90;;;;;;5076502;28;20024;-75
2022/01/26 11:02:25;;;;;;;38.97;12.10;;;5.10;99.90;;;;;;5076294;28;20390;-75
2022/01/26 11:04:51;;;;;;;44.35;12.88;;;5.20;99.90;;;;;;5077319;28;20024;-75
2022/01/26 11:07:17;;;;;;;42.53;12.45;;;5.20;99.90;;;;;;5077209;28;20033;-75
2022/01/26 11:09:47;;;;;;;44.13;12.70;;;5.30;99.90;;;;;;5077230;28;20033;-75
2022/01/26 11:12:26;;;;;;;35.65;10.77;;;5.40;99.90;;;;;;5077204;28;20050;-76
2022/01/26 11:15:16;;;;;;;35.22;11.90;;;5.40;99.90;;;;;;5077588;28;20036;-74
2022/01/26 11:17:46;;;;;;;37.50;12.13;;;5.50;99.90;;;;;;5075204;28;20075;-73
2022/01/26 11:20:34;;;;;;;34.80;11.20;;;5.50;99.90;;;;;;5075738;28;20107;-73
2022/01/26 11:23:04;;;;;;;38.05;11.25;;;5.60;99.90;;;;;;5077132;28;20031;-73
2022/01/26 11:25:39;;;;;;;39.65;11.63;;;5.60;99.90;;;;;;5076736;28;20478;-73
2022/01/26 11:28:21;;;;;;;40.60;11.85;;;5.50;99.90;;;;;;5076744;28;20493;-73
2022/01/26 11:30:47;;;;;;;32.15;11.27;;;5.50;99.90;;;;;;5076609;28;20032;-73
2022/01/26 11:33:17;;;;;;;40.60;12.05;;;5.60;99.90;;;;;;5076864;28;20481;-73
2022/01/26 11:35:46;;;;;;;40.50;12.77;;;5.50;99.90;;;;;;5075230;28;20185;-75
2022/01/26 11:46:59;;;;;;;37.42;11.85;;;5.70;99.90;;;;;;5076705;28;20078;-74
2022/01/26 11:49:33;;;;;;;35.33;11.52;;;5.60;99.90;;;;;;5076849;28;20020;-75
2022/01/26 11:51:59;;;;;;;53.38;13.38;;;5.70;99.90;;;;;;5075028;28;20481;-75
2022/01/26 11:54:28;;;;;;;44.55;12.98;;;5.70;99.90;;;;;;5074515;28;20021;-76
2022/01/26 11:57:00;;;;;;;40.65;14.13;;;5.60;99.90;;;;;;5074947;28;20021;-75
2022/01/26 11:59:29;;;;;;;40.95;12.68;;;5.70;99.90;;;;;;5075457;28;20052;-75
2022/01/26 12:02:00;;;;;;;34.03;11.98;;;5.80;99.90;;;;;;5075858;28;20019;-76
2022/01/26 12:04:26;;;;;;;42.70;12.00;;;5.90;99.90;;;;;;5074836;28;20029;-76
2022/01/26 12:06:59;;;;;;;37.03;11.07;;;5.90;99.90;;;;;;5075904;28;20095;-76
2022/01/26 12:09:28;;;;;;;37.40;12.02;;;5.90;99.90;;;;;;5076403;28;20584;-76
2022/01/26 12:11:55;;;;;;;38.85;11.65;;;5.80;99.90;;;;;;5076175;28;20446;-75
2022/01/26 12:14:22;;;;;;;42.38;12.68;;;5.80;99.90;;;;;;5076260;28;20166;-76
2022/01/26 12:16:51;;;;;;;43.00;12.93;;;5.80;99.90;;;;;;5076472;28;20013;-75
2022/01/26 12:19:35;;;;;;;36.45;12.43;;;5.80;99.90;;;;;;5076553;28;20562;-75
2022/01/26 12:36:35;;;;;;;36.05;11.52;;;6.00;99.90;;;;;;5076495;28;20029;-76
2022/01/26 12:39:01;;;;;;;32.35;11.25;;;6.00;99.90;;;;;;5076483;28;20146;-75
2022/01/26 12:43:58;;;;;;;32.92;10.57;;;6.10;99.90;;;;;;5077538;28;20025;-76
2022/01/26 12:46:28;;;;;;;31.08;10.98;;;6.00;99.90;;;;;;5075367;28;20035;-76
2022/01/26 12:49:00;;;;;;;31.60;11.32;;;6.10;99.90;;;;;;5076667;28;20027;-75
2022/01/26 12:51:27;;;;;;;38.35;9.95;;;6.20;99.90;;;;;;5075354;28;20024;-75
2022/01/26 12:53:59;;;;;;;31.73;10.85;;;6.20;99.90;;;;;;5074920;28;20031;-75
2022/01/26 12:56:29;;;;;;;32.42;10.95;;;6.20;99.90;;;;;;5075317;28;20041;-76
2022/01/26 12:59:04;;;;;;;29.25;10.73;;;6.20;99.90;;;;;;5073570;28;20024;-76
2022/01/26 13:01:29;;;;;;;30.90;10.93;;;6.30;99.90;;;;;;5074961;28;20421;-75
2022/01/26 13:04:01;;;;;;;27.95;9.90;;;6.30;99.90;;;;;;5075334;28;20025;-75
2022/01/26 13:06:34;;;;;;;35.67;11.38;;;6.30;99.90;;;;;;5074961;28;20028;-75
2022/01/26 13:09:02;;;;;;;31.75;10.43;;;6.30;99.90;;;;;;5073502;28;20111;-75
2022/01/26 13:11:33;;;;;;;30.02;10.10;;;6.40;99.90;;;;;;5074473;28;20020;-74
2022/01/26 13:14:13;;;;;;;31.35;10.70;;;6.40;99.90;;;;;;5074270;28;20025;-74
2022/01/26 13:16:55;;;;;;;30.00;10.20;;;6.50;99.90;;;;;;5074878;28;20016;-75
2022/01/26 13:19:36;;;;;;;29.98;10.20;;;6.50;99.90;;;;;;5074807;28;20017;-74
2022/01/26 13:31:13;;;;;;;35.67;10.73;;;6.30;99.90;;;;;;5074977;28;20551;-74
2022/01/26 13:36:08;;;;;;;37.50;10.48;;;6.20;99.90;;;;;;5074420;28;20611;-76
2022/01/26 13:38:48;;;;;;;30.30;10.48;;;6.10;99.90;;;;;;5074229;28;20028;-76
2022/01/26 13:41:27;;;;;;;37.28;10.85;;;6.20;99.90;;;;;;5074619;28;20023;-76
2022/01/26 13:57:15;;;;;;;28.90;9.57;;;6.20;99.90;;;;;;5074361;28;20039;-76
2022/01/26 13:59:38;;;;;;;26.55;9.93;;;6.30;99.90;;;;;;5073603;28;20031;-76
2022/01/26 14:02:04;;;;;;;;;;;6.20;99.90;;;;;;5074124;28;20028;-76
2022/01/26 14:04:29;;;;;;;27.65;10.35;;;6.20;99.90;;;;;;5074298;28;20261;-77
2022/01/26 14:06:55;;;;;;;26.92;9.32;;;6.20;99.90;;;;;;5074152;28;20024;-76
2022/01/26 14:09:20;;;;;;;28.17;8.73;;;6.30;99.90;;;;;;5074045;28;20025;-76
2022/01/26 14:11:48;;;;;;;27.75;8.98;;;6.30;99.90;;;;;;5073884;28;20116;-76
2022/01/26 14:14:21;;;;;;;31.25;9.43;;;6.30;99.90;;;;;;5073589;28;20055;-76
2022/01/26 14:16:56;;;;;;;28.67;8.50;;;6.30;99.90;;;;;;5073586;28;20020;-77
2022/01/26 14:19:50;;;;;;;21.80;8.38;;;6.30;99.90;;;;;;5073542;28;20023;-76
2022/01/26 14:27:17;;;;;;;22.50;7.82;;;6.40;99.90;;;;;;5073958;28;20074;-77
2022/01/26 14:30:15;;;;;;;22.35;8.50;;;6.40;99.90;;;;;;5073766;28;20028;-76
2022/01/26 15:08:44;;;;;;;21.92;7.05;;;6.40;99.90;;;;;;5074511;28;20036;-76
2022/01/26 16:20:43;;;;;;;39.20;12.95;;;5.20;99.90;;;;;;5077718;28;20116;-79
2022/01/26 17:02:31;;;;;;;43.60;14.98;;;5.20;99.90;;;;;;5077192;28;20043;-80
2022/01/26 17:21:15;;;;;;;43.83;15.35;;;5.00;99.90;;;;;;5075623;28;20397;-80
2022/01/26 18:13:32;;;;;;;44.53;13.93;;;4.90;99.90;;;;;;5075005;28;20048;-76
2022/01/26 18:16:02;;;;;;;43.65;14.18;;;5.00;99.90;;;;;;5074441;28;20051;-76
2022/01/26 18:50:05;;;;;;;36.67;13.02;;;5.00;99.90;;;;;;5093899;28;20097;-74
2022/01/26 18:52:32;;;;;;;40.10;12.55;;;5.00;99.90;;;;;;5092726;28;20031;-74
2022/01/26 18:54:58;;;;;;;39.25;13.73;;;5.00;99.90;;;;;;5093894;28;20052;-74
2022/01/26 18:57:24;;;;;;;36.63;14.10;;;4.90;99.90;;;;;;5093998;28;20063;-75
2022/01/26 18:59:49;;;;;;;38.65;13.57;;;5.00;99.90;;;;;;5092409;28;20537;-73
2022/01/26 19:02:15;;;;;;;46.92;14.30;;;4.90;99.90;;;;;;5093526;28;20055;-75
2022/01/26 19:04:47;;;;;;;42.75;14.32;;;5.00;99.90;;;;;;5092227;28;20016;-74
2022/01/26 19:07:13;;;;;;;40.22;14.90;;;5.00;99.90;;;;;;5095035;28;20020;-75
2022/01/26 19:09:42;;;;;;;47.25;14.15;;;5.00;99.90;;;;;;5095973;28;20035;-75
2022/01/26 19:12:11;;;;;;;38.95;13.15;;;5.00;99.90;;;;;;5095860;28;20024;-74
2022/01/26 19:14:41;;;;;;;42.42;14.50;;;5.00;99.90;;;;;;5097325;28;20393;-74
2022/01/26 19:17:26;;;;;;;42.80;15.32;;;5.00;99.90;;;;;;5097769;28;20020;-74
2022/01/26 19:25:18;;;;;;;46.35;15.73;;;5.00;99.90;;;;;;5097897;28;20028;-75
2022/01/26 19:33:07;;;;;;;42.38;14.43;;;4.90;99.90;;;;;;5098228;28;20047;-74
2022/01/26 19:47:15;;;;;;;45.20;15.10;;;4.80;99.90;;;;;;5097467;28;20046;-74
2022/01/26 19:54:30;;;;;;;39.53;12.73;;;4.80;99.90;;;;;;5096945;28;20500;-74
2022/01/26 19:56:58;;;;;;;40.60;14.98;;;4.90;99.90;;;;;;5096487;28;20012;-73
2022/01/26 19:59:24;;;;;;;44.17;13.60;;;4.80;99.90;;;;;;5096608;28;20020;-73